Time;durP1;ratioP1;P1;durP2;ratioP2;P2;SDS_P1;SDS_P2;PMS_P1;PMS_P2;Temp;Humidity;BMP_temperature;BMP_pressure;BME280_temperature;BME280_humidity;BME280_pressure;Samples;Min_cycle;Max_cycle;Signal;HPM_P1;HPM_P2
2021/01/30 00:02:26;;;;;;;7.07;3.10;;;-4.30;99.90;;;;;;5031300;28;20625;-62
2021/01/30 00:04:52;;;;;;;5.83;3.37;;;-4.20;99.90;;;;;;5030916;28;20267;-64
2021/01/30 00:07:19;;;;;;;8.63;3.47;;;-4.30;99.90;;;;;;5031119;28;20217;-63
2021/01/30 00:09:45;;;;;;;3.90;2.37;;;-4.40;99.90;;;;;;5031947;28;20220;-63
2021/01/30 00:12:12;;;;;;;4.33;2.57;;;-4.40;99.90;;;;;;5044249;28;20195;-63
2021/01/30 00:14:40;;;;;;;2.70;1.70;;;-4.50;99.90;;;;;;5050848;28;20215;-63
2021/01/30 00:17:08;;;;;;;6.17;3.07;;;-4.50;99.90;;;;;;5050238;28;20282;-63
2021/01/30 00:19:35;;;;;;;6.20;3.47;;;-4.50;99.90;;;;;;5050657;28;20255;-63
2021/01/30 00:22:04;;;;;;;7.03;3.33;;;-4.60;99.90;;;;;;5043668;28;20268;-62
2021/01/30 00:24:31;;;;;;;4.23;2.37;;;-4.70;99.90;;;;;;5030958;28;20227;-62
2021/01/30 00:27:00;;;;;;;4.77;2.40;;;-4.70;99.90;;;;;;5030832;28;20299;-62
2021/01/30 00:29:29;;;;;;;4.30;2.90;;;-4.70;99.90;;;;;;5044549;28;20233;-63
2021/01/30 00:31:56;;;;;;;3.83;2.67;;;-4.70;99.90;;;;;;5050865;28;20238;-62
2021/01/30 00:34:25;;;;;;;8.20;4.10;;;-4.70;99.90;;;;;;5046596;28;20367;-63
2021/01/30 00:36:51;;;;;;;4.03;2.57;;;-4.70;99.90;;;;;;5034633;28;20287;-63
2021/01/30 00:39:18;;;;;;;4.33;3.07;;;-4.80;99.90;;;;;;5034125;28;20308;-63
2021/01/30 00:41:45;;;;;;;4.37;2.90;;;-4.90;99.90;;;;;;5034452;28;20230;-62
2021/01/30 00:44:12;;;;;;;5.60;3.40;;;-4.90;99.90;;;;;;5053640;28;20219;-62
2021/01/30 00:46:38;;;;;;;9.33;4.17;;;-4.90;99.90;;;;;;5053537;28;20270;-62
2021/01/30 00:49:05;;;;;;;4.20;2.97;;;-5.00;99.90;;;;;;5054096;28;20309;-62
2021/01/30 00:51:32;;;;;;;6.60;3.33;;;-5.00;99.90;;;;;;5054312;28;20322;-62
2021/01/30 00:53:59;;;;;;;3.67;2.97;;;-5.00;99.90;;;;;;5053707;28;20218;-64
2021/01/30 00:56:25;;;;;;;6.23;3.10;;;-5.00;99.90;;;;;;5054047;28;20215;-63
2021/01/30 00:58:52;;;;;;;6.43;3.03;;;-5.00;99.90;;;;;;5052059;28;20261;-63
2021/01/30 01:01:18;;;;;;;3.40;2.60;;;-5.00;99.90;;;;;;5040528;28;20223;-62
2021/01/30 01:03:45;;;;;;;6.03;3.67;;;-5.00;99.90;;;;;;5053459;28;20227;-63
2021/01/30 01:06:12;;;;;;;6.30;2.93;;;-5.10;99.90;;;;;;5052414;28;20258;-62
2021/01/30 01:08:39;;;;;;;2.60;2.20;;;-5.20;99.90;;;;;;5035997;28;20689;-61
2021/01/30 01:11:05;;;;;;;5.20;3.73;;;-5.20;99.90;;;;;;5053704;28;20515;-62
2021/01/30 01:13:32;;;;;;;4.33;2.63;;;-5.20;99.90;;;;;;5053848;28;20265;-62
2021/01/30 01:15:58;;;;;;;4.47;2.70;;;-5.30;99.90;;;;;;5051011;28;20190;-62
2021/01/30 01:18:26;;;;;;;3.30;2.10;;;-5.30;99.90;;;;;;5053311;28;20199;-62
2021/01/30 01:20:52;;;;;;;3.77;2.43;;;-5.30;99.90;;;;;;5053420;28;20234;-62
2021/01/30 01:23:20;;;;;;;3.80;2.23;;;-5.30;99.90;;;;;;5053806;28;20242;-62
2021/01/30 01:25:46;;;;;;;8.63;3.63;;;-5.40;99.90;;;;;;5053262;28;20282;-62
2021/01/30 01:28:13;;;;;;;4.93;3.13;;;-5.40;99.90;;;;;;5047649;28;20283;-62
2021/01/30 01:30:39;;;;;;;5.17;3.20;;;-5.40;99.90;;;;;;5048916;28;20238;-62
2021/01/30 01:33:06;;;;;;;4.27;2.80;;;-5.40;99.90;;;;;;5053152;28;20234;-62
2021/01/30 01:35:33;;;;;;;7.77;3.37;;;-5.50;99.90;;;;;;5051992;28;20270;-61
2021/01/30 01:38:01;;;;;;;5.33;3.00;;;-5.50;99.90;;;;;;5033660;28;20311;-61
2021/01/30 01:40:32;;;;;;;4.40;3.10;;;-5.50;99.90;;;;;;5036687;28;20306;-61
2021/01/30 01:43:01;;;;;;;6.60;3.33;;;-5.50;99.90;;;;;;5052951;28;20692;-61
2021/01/30 01:45:28;;;;;;;6.53;3.23;;;-5.50;99.90;;;;;;5051921;28;20222;-62
2021/01/30 01:47:55;;;;;;;9.20;3.93;;;-5.50;99.90;;;;;;5052928;28;20227;-61
2021/01/30 01:50:36;;;;;;;7.63;2.83;;;-5.50;99.90;;;;;;5052922;28;20245;-61
2021/01/30 01:53:08;;;;;;;6.00;3.43;;;-5.50;99.90;;;;;;5052530;28;20273;-61
2021/01/30 01:55:36;;;;;;;3.20;1.70;;;-5.60;99.90;;;;;;5053052;28;20270;-61
2021/01/30 01:58:03;;;;;;;4.70;3.53;;;-5.60;99.90;;;;;;5052351;28;20238;-62
2021/01/30 02:00:31;;;;;;;8.03;3.17;;;-5.60;99.90;;;;;;5052456;28;20747;-62
2021/01/30 02:02:57;;;;;;;4.83;2.97;;;-5.50;99.90;;;;;;5051213;28;20223;-62
2021/01/30 02:05:27;;;;;;;6.50;3.53;;;-5.60;99.90;;;;;;5052753;28;20314;-62
2021/01/30 02:07:57;;;;;;;7.17;3.63;;;-5.60;99.90;;;;;;5052361;28;20238;-62
2021/01/30 02:10:26;;;;;;;4.03;2.20;;;-5.60;99.90;;;;;;5052952;28;20195;-61
2021/01/30 02:12:58;;;;;;;4.70;2.73;;;-5.60;99.90;;;;;;5052120;28;20210;-62
2021/01/30 02:15:25;;;;;;;5.67;2.37;;;-5.60;99.90;;;;;;5052220;28;20199;-61
2021/01/30 02:18:05;;;;;;;3.67;2.33;;;-5.60;99.90;;;;;;5052084;28;20209;-62
2021/01/30 02:21:09;;;;;;;9.50;3.17;;;-5.60;99.90;;;;;;5051587;28;20286;-63
2021/01/30 02:24:05;;;;;;;3.87;1.97;;;-5.60;99.90;;;;;;5043111;28;20298;-62
2021/01/30 02:27:15;;;;;;;3.43;1.90;;;-5.60;99.90;;;;;;5032429;28;20227;-63
2021/01/30 02:30:08;;;;;;;5.13;2.60;;;-5.70;99.90;;;;;;5045268;28;20612;-61
2021/01/30 02:33:04;;;;;;;4.60;2.73;;;-5.60;99.90;;;;;;5052250;28;20238;-61
2021/01/30 02:35:47;;;;;;;3.00;2.20;;;-5.70;99.90;;;;;;5051710;28;20222;-61
2021/01/30 02:38:19;;;;;;;5.07;3.50;;;-5.70;99.90;;;;;;5051966;28;20199;-62
2021/01/30 02:40:51;;;;;;;4.40;2.13;;;-5.70;99.90;;;;;;5051370;28;20245;-61
2021/01/30 02:43:21;;;;;;;2.60;2.10;;;-5.70;99.90;;;;;;5051533;28;20226;-61
2021/01/30 02:45:53;;;;;;;5.83;2.73;;;-5.60;99.90;;;;;;5049138;28;20202;-61
2021/01/30 02:48:22;;;;;;;3.20;2.13;;;-5.60;99.90;;;;;;5050679;28;20271;-61
2021/01/30 02:50:53;;;;;;;5.40;3.07;;;-5.60;99.90;;;;;;5051854;28;20630;-61
2021/01/30 02:53:24;;;;;;;6.03;2.00;;;-5.60;99.90;;;;;;5050267;28;20195;-61
2021/01/30 02:55:54;;;;;;;3.23;2.30;;;-5.50;99.90;;;;;;5051344;28;20270;-61
2021/01/30 02:58:23;;;;;;;4.83;2.93;;;-5.50;99.90;;;;;;5051262;28;20629;-61
2021/01/30 03:00:56;;;;;;;4.33;2.53;;;-5.60;99.90;;;;;;5051139;28;20697;-61
2021/01/30 03:03:23;;;;;;;3.07;2.27;;;-5.50;99.90;;;;;;5051107;28;20326;-61
2021/01/30 03:05:50;;;;;;;3.03;2.13;;;-5.50;99.90;;;;;;5051647;28;20317;-61
2021/01/30 03:08:27;;;;;;;5.47;2.17;;;-5.50;99.90;;;;;;5051221;28;20394;-62
2021/01/30 03:11:02;;;;;;;3.40;2.50;;;-5.50;99.90;;;;;;5051195;28;20669;-62
2021/01/30 03:13:34;;;;;;;4.43;2.37;;;-5.50;99.90;;;;;;5051197;28;20589;-62
2021/01/30 03:16:03;;;;;;;3.50;2.00;;;-5.50;99.90;;;;;;5052127;28;20240;-62
2021/01/30 03:18:33;;;;;;;2.73;2.10;;;-5.50;99.90;;;;;;5050771;28;20320;-62
2021/01/30 03:21:03;;;;;;;3.17;2.30;;;-5.50;99.90;;;;;;5031383;28;20588;-63
2021/01/30 03:23:31;;;;;;;3.07;2.30;;;-5.50;99.90;;;;;;5049613;28;20249;-61
2021/01/30 03:26:01;;;;;;;2.83;2.00;;;-5.50;99.90;;;;;;5050871;28;20281;-61
2021/01/30 03:28:27;;;;;;;2.57;2.13;;;-5.40;99.90;;;;;;5050728;28;20633;-62
2021/01/30 03:30:54;;;;;;;11.53;2.03;;;-5.50;99.90;;;;;;5050780;28;20231;-62
2021/01/30 03:33:21;;;;;;;5.17;2.37;;;-5.50;99.90;;;;;;5050821;28;20205;-62
2021/01/30 03:35:47;;;;;;;3.90;2.03;;;-5.50;99.90;;;;;;5050765;28;20216;-62
2021/01/30 03:38:14;;;;;;;2.60;1.70;;;-5.50;99.90;;;;;;5050703;28;20223;-63
2021/01/30 03:40:43;;;;;;;4.00;2.07;;;-5.60;99.90;;;;;;5050950;28;20295;-61
2021/01/30 03:43:09;;;;;;;4.27;2.07;;;-5.50;99.90;;;;;;5051233;28;20199;-63
2021/01/30 03:45:36;;;;;;;4.03;2.37;;;-5.60;99.90;;;;;;5051170;28;20230;-61
2021/01/30 03:48:03;;;;;;;5.17;2.27;;;-5.60;99.90;;;;;;5050896;28;20274;-61
2021/01/30 03:50:30;;;;;;;2.77;1.77;;;-5.60;99.90;;;;;;5050175;28;20219;-63
2021/01/30 03:52:57;;;;;;;2.30;1.50;;;-5.60;99.90;;;;;;5050822;28;20203;-62
2021/01/30 03:55:24;;;;;;;1.63;1.23;;;-5.60;99.90;;;;;;5036720;28;20291;-61
2021/01/30 03:57:52;;;;;;;2.40;2.20;;;-5.70;99.90;;;;;;5031150;28;20278;-62
2021/01/30 04:00:21;;;;;;;3.13;1.87;;;-5.70;99.90;;;;;;5030557;28;20600;-63
2021/01/30 04:02:48;;;;;;;3.20;2.17;;;-5.80;99.90;;;;;;5047315;28;20230;-62
2021/01/30 04:05:17;;;;;;;7.33;2.43;;;-5.80;99.90;;;;;;5050901;28;20707;-61
2021/01/30 04:07:44;;;;;;;4.37;2.30;;;-5.80;99.90;;;;;;5051636;28;20721;-62
2021/01/30 04:10:14;;;;;;;1.60;1.20;;;-5.90;99.90;;;;;;5054758;28;20231;-61
2021/01/30 04:12:41;;;;;;;3.97;2.00;;;-5.80;99.90;;;;;;5054457;28;20696;-62
2021/01/30 04:15:11;;;;;;;2.53;1.60;;;-5.80;99.90;;;;;;5054208;28;20193;-62
2021/01/30 04:17:38;;;;;;;2.40;1.27;;;-5.90;99.90;;;;;;5054821;28;20290;-62
2021/01/30 04:20:05;;;;;;;1.87;1.40;;;-5.90;99.90;;;;;;5053734;28;20245;-61
2021/01/30 04:22:32;;;;;;;1.80;0.87;;;-5.90;99.90;;;;;;5054406;28;20230;-61
2021/01/30 04:24:58;;;;;;;4.83;2.20;;;-5.90;99.90;;;;;;5054622;28;20332;-62
2021/01/30 04:27:25;;;;;;;4.07;1.87;;;-6.00;99.90;;;;;;5053129;28;20652;-61
2021/01/30 04:29:51;;;;;;;1.60;1.20;;;-5.90;99.90;;;;;;5042193;28;20220;-59
2021/01/30 04:32:20;;;;;;;4.80;2.20;;;-5.90;99.90;;;;;;5045824;28;20666;-62
2021/01/30 04:34:46;;;;;;;2.47;1.60;;;-6.00;99.90;;;;;;5054353;28;20207;-62
2021/01/30 04:37:13;;;;;;;2.23;1.73;;;-5.90;99.90;;;;;;5054014;28;20200;-62
2021/01/30 04:39:39;;;;;;;1.50;1.40;;;-6.00;99.90;;;;;;5054074;28;20308;-61
2021/01/30 04:42:11;;;;;;;2.70;1.70;;;-5.90;99.90;;;;;;5052658;28;20230;-60
2021/01/30 04:44:46;;;;;;;1.87;1.33;;;-5.90;99.90;;;;;;5053926;28;20219;-61
2021/01/30 04:47:23;;;;;;;2.40;1.80;;;-5.90;99.90;;;;;;5054105;28;20210;-61
2021/01/30 04:50:01;;;;;;;2.93;1.90;;;-6.00;99.90;;;;;;5054123;28;20189;-61
2021/01/30 04:52:45;;;;;;;3.83;2.13;;;-6.00;99.90;;;;;;5033795;28;20187;-61
2021/01/30 04:55:24;;;;;;;4.03;1.90;;;-6.00;99.90;;;;;;5033563;28;20230;-61
2021/01/30 04:58:02;;;;;;;1.90;1.13;;;-6.10;99.90;;;;;;5034357;28;20219;-62
2021/01/30 05:00:49;;;;;;;2.63;1.60;;;-6.10;99.90;;;;;;5037923;28;20249;-62
2021/01/30 05:03:32;;;;;;;3.37;1.90;;;-6.10;99.90;;;;;;5053881;28;20183;-62
2021/01/30 05:06:06;;;;;;;2.17;1.50;;;-6.10;99.90;;;;;;5053758;28;20258;-62
2021/01/30 05:08:37;;;;;;;3.97;1.90;;;-6.20;99.90;;;;;;5049017;28;20313;-62
2021/01/30 05:11:09;;;;;;;4.13;2.20;;;-6.20;99.90;;;;;;5048199;28;20285;-62
2021/01/30 05:13:41;;;;;;;2.43;1.83;;;-6.20;99.90;;;;;;5052599;28;20280;-62
2021/01/30 05:16:12;;;;;;;1.73;1.57;;;-6.30;99.90;;;;;;5053525;28;20299;-62
2021/01/30 05:18:45;;;;;;;4.17;2.03;;;-6.30;99.90;;;;;;5052381;28;20655;-63
2021/01/30 05:21:15;;;;;;;3.40;1.53;;;-6.20;99.90;;;;;;5052570;28;20659;-61
2021/01/30 05:23:47;;;;;;;3.47;1.57;;;-6.30;99.90;;;;;;5053361;28;20223;-61
2021/01/30 05:26:35;;;;;;;3.63;2.10;;;-6.30;99.90;;;;;;5053209;28;20227;-62
2021/01/30 05:29:10;;;;;;;3.37;1.80;;;-6.40;99.90;;;;;;5033646;28;20271;-60
2021/01/30 05:31:46;;;;;;;1.97;1.63;;;-6.40;99.90;;;;;;5039323;28;20270;-61
2021/01/30 05:34:16;;;;;;;2.77;1.60;;;-6.40;99.90;;;;;;5045927;28;20215;-61
2021/01/30 05:36:51;;;;;;;3.73;2.23;;;-6.50;99.90;;;;;;5052771;28;20219;-60
2021/01/30 05:39:47;;;;;;;3.23;1.97;;;-6.60;99.90;;;;;;5052477;28;20202;-61
2021/01/30 05:42:22;;;;;;;1.30;1.17;;;-6.60;99.90;;;;;;5052954;28;20283;-62
2021/01/30 05:44:54;;;;;;;2.20;1.60;;;-6.50;99.90;;;;;;5052665;28;20183;-61
2021/01/30 05:47:24;;;;;;;4.97;1.93;;;-6.50;99.90;;;;;;5052543;28;20648;-61
2021/01/30 05:50:06;;;;;;;4.23;2.40;;;-6.50;99.90;;;;;;5053102;28;20585;-61
2021/01/30 05:52:35;;;;;;;4.20;1.90;;;-6.60;99.90;;;;;;5052844;28;20183;-62
2021/01/30 05:55:03;;;;;;;1.93;1.37;;;-6.60;99.90;;;;;;5053280;28;20217;-62
2021/01/30 05:57:29;;;;;;;1.37;1.27;;;-6.50;99.90;;;;;;5052234;28;20229;-61
2021/01/30 05:59:58;;;;;;;5.30;1.67;;;-6.60;99.90;;;;;;5052281;28;20298;-62
2021/01/30 06:02:27;;;;;;;3.37;1.60;;;-6.60;99.90;;;;;;5051464;28;20286;-62
2021/01/30 06:04:54;;;;;;;3.13;1.80;;;-6.60;99.90;;;;;;5035342;28;20364;-62
2021/01/30 06:07:28;;;;;;;2.00;1.80;;;-6.60;99.90;;;;;;5032793;28;20216;-63
2021/01/30 06:09:54;;;;;;;1.87;1.57;;;-6.50;99.90;;;;;;5052060;28;20278;-62
2021/01/30 06:12:24;;;;;;;3.83;1.80;;;-6.60;99.90;;;;;;5052048;28;20629;-62
2021/01/30 06:14:53;;;;;;;4.27;2.10;;;-6.70;99.90;;;;;;5052315;28;20186;-61
2021/01/30 06:17:32;;;;;;;3.00;2.13;;;-6.70;99.90;;;;;;5051984;28;20235;-62
2021/01/30 06:20:14;;;;;;;1.40;1.17;;;-6.80;99.90;;;;;;5052223;28;20250;-62
2021/01/30 06:22:41;;;;;;;1.73;1.43;;;-6.80;99.90;;;;;;5052166;28;20192;-61
2021/01/30 06:25:29;;;;;;;4.57;2.50;;;-6.80;99.90;;;;;;5052825;28;20226;-61
2021/01/30 06:28:01;;;;;;;3.73;2.37;;;-6.90;99.90;;;;;;5051760;28;20226;-61
2021/01/30 06:30:34;;;;;;;4.13;2.53;;;-6.90;99.90;;;;;;5051107;28;20184;-61
2021/01/30 06:33:04;;;;;;;2.87;1.73;;;-6.90;99.90;;;;;;5051572;28;20265;-62
2021/01/30 06:35:39;;;;;;;3.33;2.30;;;-7.00;99.90;;;;;;5034517;28;20212;-63
2021/01/30 06:38:17;;;;;;;4.10;2.47;;;-7.00;99.90;;;;;;5032612;28;20227;-62
2021/01/30 06:40:55;;;;;;;3.40;2.57;;;-7.00;99.90;;;;;;5032956;28;20207;-62
2021/01/30 06:43:31;;;;;;;2.33;1.97;;;-7.10;99.90;;;;;;5031901;28;20650;-62
2021/01/30 06:46:07;;;;;;;4.00;3.03;;;-7.10;99.90;;;;;;5032302;28;20280;-61
2021/01/30 06:48:37;;;;;;;2.20;1.70;;;-7.10;99.90;;;;;;5040991;28;20278;-62
2021/01/30 06:51:38;;;;;;;3.20;2.07;;;-7.20;99.90;;;;;;5052287;28;20237;-61
2021/01/30 06:54:22;;;;;;;3.07;1.87;;;-7.20;99.90;;;;;;5051923;28;20231;-62
2021/01/30 06:57:02;;;;;;;4.67;2.70;;;-7.30;99.90;;;;;;5051393;28;20271;-62
2021/01/30 06:59:32;;;;;;;2.90;1.83;;;-7.30;99.90;;;;;;5045924;28;20725;-63
2021/01/30 07:01:59;;;;;;;4.67;2.10;;;-7.30;99.90;;;;;;5037043;28;20265;-62
2021/01/30 07:04:53;;;;;;;5.77;2.97;;;-7.40;99.90;;;;;;5051079;28;20223;-63
2021/01/30 07:07:25;;;;;;;4.80;1.80;;;-7.40;99.90;;;;;;5044926;28;20274;-62
2021/01/30 07:10:08;;;;;;;4.67;2.70;;;-7.50;99.90;;;;;;5051256;28;20230;-63
2021/01/30 07:12:44;;;;;;;4.53;2.70;;;-7.50;99.90;;;;;;5050983;28;20215;-62
2021/01/30 07:15:21;;;;;;;6.17;3.33;;;-7.60;99.90;;;;;;5051708;28;20188;-62
2021/01/30 07:18:26;;;;;;;4.40;2.67;;;-7.60;99.90;;;;;;5051095;28;20214;-62
2021/01/30 07:21:13;;;;;;;7.47;3.50;;;-7.70;99.90;;;;;;5051033;28;20223;-62
2021/01/30 07:23:46;;;;;;;4.23;2.83;;;-7.80;99.90;;;;;;5051246;28;20227;-63
2021/01/30 07:26:20;;;;;;;7.43;3.33;;;-7.90;99.90;;;;;;5031583;28;20238;-62
2021/01/30 07:28:56;;;;;;;2.00;1.73;;;-7.90;99.90;;;;;;5031865;28;20327;-62
2021/01/30 07:31:29;;;;;;;5.87;2.90;;;-7.90;99.90;;;;;;5031291;28;20633;-63
2021/01/30 07:34:00;;;;;;;4.03;2.20;;;-7.90;99.90;;;;;;5034118;28;20601;-63
2021/01/30 07:36:32;;;;;;;4.63;3.00;;;-7.90;99.90;;;;;;5035411;28;20697;-62
2021/01/30 07:39:07;;;;;;;7.47;3.63;;;-7.90;99.90;;;;;;5051268;28;20180;-62
2021/01/30 07:41:48;;;;;;;5.73;3.83;;;-8.00;99.90;;;;;;5051327;28;20184;-62
2021/01/30 07:44:20;;;;;;;5.73;3.33;;;-8.00;99.90;;;;;;5050042;28;20186;-62
2021/01/30 07:46:59;;;;;;;7.80;3.73;;;-8.00;99.90;;;;;;5055511;28;20215;-63
2021/01/30 07:49:28;;;;;;;3.47;2.53;;;-8.00;99.90;;;;;;5054710;28;20227;-61
2021/01/30 07:52:01;;;;;;;5.83;3.23;;;-8.00;99.90;;;;;;5054577;28;20241;-61
2021/01/30 07:54:28;;;;;;;5.43;3.37;;;-8.10;99.90;;;;;;5054800;28;20203;-64
2021/01/30 07:57:24;;;;;;;7.20;2.33;;;-8.10;99.90;;;;;;5054511;28;20233;-61
2021/01/30 07:59:56;;;;;;;3.93;2.23;;;-8.10;99.90;;;;;;5036042;28;20299;-63
2021/01/30 08:02:47;;;;;;;5.87;3.07;;;-8.10;99.90;;;;;;5034965;28;20199;-61
2021/01/30 08:05:31;;;;;;;4.43;2.13;;;-8.10;99.90;;;;;;5030190;28;20259;-62
2021/01/30 08:08:11;;;;;;;2.97;2.20;;;-8.10;99.90;;;;;;5035452;28;20309;-62
2021/01/30 08:10:56;;;;;;;3.90;2.23;;;-8.20;99.90;;;;;;5035360;28;20216;-62
2021/01/30 08:13:39;;;;;;;3.03;2.03;;;-8.20;99.90;;;;;;5034991;28;20661;-62
2021/01/30 08:16:24;;;;;;;2.07;1.70;;;-8.20;99.90;;;;;;5054020;28;20218;-62
2021/01/30 08:18:53;;;;;;;3.50;1.80;;;-8.30;99.90;;;;;;5044128;28;20224;-64
2021/01/30 08:21:28;;;;;;;5.07;2.80;;;-8.30;99.90;;;;;;5034883;28;20306;-62
2021/01/30 08:24:02;;;;;;;2.83;1.43;;;-8.30;99.90;;;;;;5053005;28;20226;-62
2021/01/30 08:26:34;;;;;;;2.37;1.17;;;-8.20;99.90;;;;;;5054005;28;20214;-63
2021/01/30 08:29:12;;;;;;;7.13;2.70;;;-8.20;99.90;;;;;;5054474;28;20206;-63
2021/01/30 08:31:42;;;;;;;3.93;2.30;;;-8.10;99.90;;;;;;5053872;28;20229;-62
2021/01/30 08:34:24;;;;;;;3.80;1.70;;;-8.20;99.90;;;;;;5054211;28;20279;-62
2021/01/30 08:36:52;;;;;;;5.07;2.43;;;-8.20;99.90;;;;;;5054157;28;20222;-62
2021/01/30 08:39:23;;;;;;;3.10;1.97;;;-8.10;99.90;;;;;;5052295;28;20718;-62
2021/01/30 08:41:54;;;;;;;4.87;1.80;;;-8.10;99.90;;;;;;5054564;28;20191;-62
2021/01/30 08:44:38;;;;;;;4.57;2.60;;;-8.10;99.90;;;;;;5053862;28;20216;-63
2021/01/30 08:47:08;;;;;;;2.63;1.90;;;-8.10;99.90;;;;;;5054467;28;20605;-61
2021/01/30 08:49:34;;;;;;;3.37;1.80;;;-8.10;99.90;;;;;;5054092;28;20294;-63
2021/01/30 08:52:22;;;;;;;3.83;2.40;;;-8.10;99.90;;;;;;5053270;28;20234;-63
2021/01/30 08:54:49;;;;;;;3.93;2.50;;;-8.10;99.90;;;;;;5053863;28;20203;-63
2021/01/30 08:57:44;;;;;;;5.13;2.63;;;-8.00;99.90;;;;;;5054016;28;20274;-63
2021/01/30 09:00:38;;;;;;;13.23;2.13;;;-8.00;99.90;;;;;;5052666;28;20643;-62
2021/01/30 09:03:07;;;;;;;5.40;2.20;;;-7.90;99.90;;;;;;5053821;28;20279;-61
2021/01/30 09:05:40;;;;;;;1.80;1.63;;;-8.00;99.90;;;;;;5049863;28;20239;-62
2021/01/30 09:08:36;;;;;;;7.50;2.53;;;-8.00;99.90;;;;;;5033812;28;20230;-62
2021/01/30 09:11:38;;;;;;;3.50;2.00;;;-7.90;99.90;;;;;;5043861;28;20672;-62
2021/01/30 09:14:26;;;;;;;4.63;2.53;;;-8.00;99.90;;;;;;5044600;28;20274;-61
2021/01/30 09:17:02;;;;;;;1.83;1.67;;;-8.00;99.90;;;;;;5053670;28;20500;-62
2021/01/30 09:19:39;;;;;;;6.90;3.33;;;-7.90;99.90;;;;;;5054015;28;20183;-62
2021/01/30 09:22:13;;;;;;;7.90;2.90;;;-7.90;99.90;;;;;;5053991;28;20190;-63
2021/01/30 09:25:01;;;;;;;7.83;2.80;;;-7.90;99.90;;;;;;5053441;28;20242;-63
2021/01/30 09:27:30;;;;;;;4.63;2.10;;;-7.90;99.90;;;;;;5053809;28;20270;-62
2021/01/30 09:30:03;;;;;;;7.87;2.83;;;-8.00;99.90;;;;;;5049212;28;20668;-62
2021/01/30 09:32:45;;;;;;;7.73;3.10;;;-7.90;99.90;;;;;;5051191;28;20199;-63
2021/01/30 09:35:19;;;;;;;3.93;2.47;;;-7.80;99.90;;;;;;5053717;28;20199;-62
2021/01/30 09:37:48;;;;;;;5.60;2.67;;;-7.70;99.90;;;;;;5053695;28;20215;-63
2021/01/30 09:40:24;;;;;;;2.33;1.70;;;-7.70;99.90;;;;;;5053378;28;20350;-62
2021/01/30 09:42:58;;;;;;;5.72;2.60;;;-7.60;99.90;;;;;;5032886;28;20906;-63
2021/01/30 09:45:25;;;;;;;4.53;2.47;;;-7.60;99.90;;;;;;5050789;28;20223;-63
2021/01/30 09:47:54;;;;;;;3.70;2.07;;;-7.60;99.90;;;;;;5053356;28;20204;-63
2021/01/30 09:50:25;;;;;;;3.07;1.67;;;-7.70;99.90;;;;;;5052863;28;20249;-61
2021/01/30 09:52:55;;;;;;;3.17;1.83;;;-7.70;99.90;;;;;;5052904;28;20265;-63
2021/01/30 09:55:23;;;;;;;5.80;1.93;;;-7.80;99.90;;;;;;5052191;28;20233;-63
2021/01/30 09:57:50;;;;;;;5.20;2.00;;;-7.70;99.90;;;;;;5052601;28;20524;-64
2021/01/30 10:00:29;;;;;;;2.93;2.23;;;-7.70;99.90;;;;;;5052837;28;20254;-64
2021/01/30 10:03:04;;;;;;;2.73;1.37;;;-7.80;99.90;;;;;;5033180;28;20227;-61
2021/01/30 10:05:31;;;;;;;1.60;1.50;;;-7.60;99.90;;;;;;5032780;28;20286;-64
2021/01/30 10:07:58;;;;;;;3.93;1.93;;;-7.70;99.90;;;;;;5033532;28;20288;-62
2021/01/30 10:10:33;;;;;;;2.67;1.20;;;-7.70;99.90;;;;;;5050287;28;20286;-63
2021/01/30 10:13:01;;;;;;;3.37;1.70;;;-7.60;99.90;;;;;;5051740;28;20528;-65
2021/01/30 10:15:31;;;;;;;3.33;2.00;;;-7.50;99.90;;;;;;5052701;28;20245;-64
2021/01/30 10:18:03;;;;;;;2.73;1.40;;;-7.40;99.90;;;;;;5052710;28;20184;-64
2021/01/30 10:20:43;;;;;;;2.33;1.50;;;-7.50;99.90;;;;;;5052657;28;20214;-64
2021/01/30 10:23:10;;;;;;;4.40;1.57;;;-7.40;99.90;;;;;;5045077;28;20215;-63
2021/01/30 10:25:37;;;;;;;3.70;1.47;;;-7.40;99.90;;;;;;5052785;28;20278;-63
2021/01/30 10:28:06;;;;;;;3.77;1.30;;;-7.50;99.90;;;;;;5052563;28;20235;-64
2021/01/30 10:30:32;;;;;;;6.30;2.17;;;-7.60;99.90;;;;;;5052068;28;20218;-62
2021/01/30 10:33:00;;;;;;;3.57;1.97;;;-7.50;99.90;;;;;;5041494;28;20231;-63
2021/01/30 10:35:31;;;;;;;1.10;1.00;;;-7.30;99.90;;;;;;5051374;28;20180;-63
2021/01/30 10:38:01;;;;;;;2.67;1.77;;;-7.20;99.90;;;;;;5050062;28;20187;-63
2021/01/30 10:40:33;;;;;;;3.17;1.60;;;-7.20;99.90;;;;;;5052104;28;20215;-64
2021/01/30 10:43:01;;;;;;;2.80;1.60;;;-7.10;99.90;;;;;;5049988;28;20577;-65
2021/01/30 10:45:30;;;;;;;2.80;1.73;;;-7.30;99.90;;;;;;5039778;28;20243;-62
2021/01/30 10:48:02;;;;;;;2.13;1.57;;;-7.50;99.90;;;;;;5051395;28;20199;-62
2021/01/30 10:50:32;;;;;;;3.73;2.03;;;-7.50;99.90;;;;;;5051243;28;20196;-63
2021/01/30 10:53:22;;;;;;;3.60;1.90;;;-7.50;99.90;;;;;;5048494;28;20210;-66
2021/01/30 10:55:49;;;;;;;4.20;2.33;;;-7.40;99.90;;;;;;5050342;28;20267;-62
2021/01/30 10:58:19;;;;;;;5.13;2.27;;;-7.30;99.90;;;;;;5051518;28;20243;-63
2021/01/30 11:00:57;;;;;;;5.63;1.93;;;-7.20;99.90;;;;;;5051289;28;20215;-64
2021/01/30 11:03:26;;;;;;;4.40;2.47;;;-7.30;99.90;;;;;;5052009;28;20212;-63
2021/01/30 11:05:53;;;;;;;3.23;2.07;;;-7.20;99.90;;;;;;5051890;28;20223;-62
2021/01/30 11:08:30;;;;;;;7.53;2.53;;;-7.20;99.90;;;;;;5050642;28;20195;-61
2021/01/30 11:11:06;;;;;;;5.17;2.40;;;-7.20;99.90;;;;;;5051193;28;20589;-63
2021/01/30 11:13:37;;;;;;;4.07;2.63;;;-7.50;99.90;;;;;;5047336;28;20554;-62
2021/01/30 11:16:12;;;;;;;3.93;2.17;;;-7.30;99.90;;;;;;5051275;28;20214;-64
2021/01/30 11:18:41;;;;;;;5.90;2.20;;;-7.50;99.90;;;;;;5051764;28;20187;-65
2021/01/30 11:21:12;;;;;;;7.07;3.10;;;-7.60;99.90;;;;;;5050135;28;20215;-63
2021/01/30 11:23:43;;;;;;;4.83;2.30;;;-7.50;99.90;;;;;;5048507;28;20346;-64
2021/01/30 11:26:38;;;;;;;5.60;1.93;;;-7.60;99.90;;;;;;5051139;28;20285;-63
2021/01/30 11:29:07;;;;;;;5.63;2.90;;;-7.60;99.90;;;;;;5027788;28;20601;-63
2021/01/30 11:31:38;;;;;;;5.70;2.50;;;-7.70;99.90;;;;;;5032156;28;20222;-64
2021/01/30 11:34:05;;;;;;;3.47;2.37;;;-7.70;99.90;;;;;;5041583;28;20671;-65
2021/01/30 11:36:31;;;;;;;4.17;2.17;;;-7.60;99.90;;;;;;5052218;28;20184;-64
2021/01/30 11:39:00;;;;;;;3.03;1.90;;;-7.50;99.90;;;;;;5051997;28;20293;-64
2021/01/30 11:41:27;;;;;;;9.37;3.13;;;-7.40;99.90;;;;;;5051808;28;20302;-63
2021/01/30 11:43:54;;;;;;;6.07;1.77;;;-7.40;99.90;;;;;;5051718;28;20263;-64
2021/01/30 11:46:21;;;;;;;4.90;2.57;;;-7.40;99.90;;;;;;5051451;28;20183;-63
2021/01/30 11:48:47;;;;;;;2.50;1.47;;;-7.30;99.90;;;;;;5051964;28;20195;-64
2021/01/30 11:51:21;;;;;;;7.07;3.33;;;-7.30;99.90;;;;;;5051184;28;20246;-62
2021/01/30 11:53:48;;;;;;;4.37;2.07;;;-7.20;99.90;;;;;;5051361;28;20219;-64
2021/01/30 11:56:15;;;;;;;5.10;2.43;;;-7.20;99.90;;;;;;5046163;28;20258;-64
2021/01/30 11:58:41;;;;;;;3.40;1.70;;;-7.30;99.90;;;;;;5051291;28;20191;-64
2021/01/30 12:01:11;;;;;;;10.03;2.40;;;-7.40;99.90;;;;;;5050985;28;20255;-64
2021/01/30 12:03:37;;;;;;;8.20;1.87;;;-7.40;99.90;;;;;;5051116;28;20246;-63
2021/01/30 12:06:04;;;;;;;3.73;2.67;;;-7.30;99.90;;;;;;5051234;28;20223;-63
2021/01/30 12:08:30;;;;;;;2.60;1.93;;;-7.30;99.90;;;;;;5051395;28;20246;-64
2021/01/30 12:10:57;;;;;;;2.10;1.30;;;-7.30;99.90;;;;;;5050907;28;20239;-64
2021/01/30 12:13:25;;;;;;;2.87;1.67;;;-7.30;99.90;;;;;;5051020;28;20200;-64
2021/01/30 12:15:51;;;;;;;1.43;1.33;;;-7.40;99.90;;;;;;5051547;28;20227;-65
2021/01/30 12:18:19;;;;;;;7.83;3.23;;;-7.30;99.90;;;;;;5050918;28;20195;-64
2021/01/30 12:20:47;;;;;;;2.03;1.50;;;-7.30;99.90;;;;;;5050871;28;20314;-65
2021/01/30 12:23:14;;;;;;;4.27;2.50;;;-7.30;99.90;;;;;;5051703;28;20192;-63
2021/01/30 12:25:41;;;;;;;5.83;2.17;;;-7.30;99.90;;;;;;5051097;28;20313;-64
2021/01/30 12:28:09;;;;;;;4.43;2.67;;;-7.30;99.90;;;;;;5051585;28;20196;-64
2021/01/30 12:30:38;;;;;;;6.27;2.67;;;-7.20;99.90;;;;;;5054695;28;20257;-62
2021/01/30 12:33:06;;;;;;;2.33;2.00;;;-7.30;99.90;;;;;;5054609;28;20203;-63
2021/01/30 12:35:34;;;;;;;1.73;1.50;;;-7.30;99.90;;;;;;5054832;28;20184;-63
2021/01/30 12:38:00;;;;;;;3.67;1.93;;;-7.30;99.90;;;;;;5054784;28;20223;-63
2021/01/30 12:40:29;;;;;;;5.77;2.23;;;-7.30;99.90;;;;;;5054294;28;20583;-64
2021/01/30 12:42:56;;;;;;;4.37;2.17;;;-7.30;99.90;;;;;;5052542;28;20283;-64
2021/01/30 12:45:23;;;;;;;5.37;2.73;;;-7.20;99.90;;;;;;5053282;28;20218;-64
2021/01/30 12:47:50;;;;;;;7.93;3.67;;;-7.20;99.90;;;;;;5053248;28;20223;-66
2021/01/30 12:50:20;;;;;;;4.33;3.17;;;-7.20;99.90;;;;;;5040665;28;20279;-65
2021/01/30 12:52:46;;;;;;;3.07;2.03;;;-7.20;99.90;;;;;;5053439;28;20198;-65
2021/01/30 12:55:14;;;;;;;7.57;3.20;;;-7.30;99.90;;;;;;5053255;28;20175;-64
2021/01/30 12:57:40;;;;;;;9.07;3.53;;;-7.30;99.90;;;;;;5053570;28;20220;-64
2021/01/30 13:00:11;;;;;;;4.97;2.10;;;-7.30;99.90;;;;;;5053318;28;20771;-64
2021/01/30 13:02:37;;;;;;;3.17;1.93;;;-7.30;99.90;;;;;;5054387;28;20233;-62
2021/01/30 13:05:07;;;;;;;3.33;2.07;;;-7.50;99.90;;;;;;5053540;28;20242;-64
2021/01/30 13:07:34;;;;;;;4.23;2.67;;;-7.50;99.90;;;;;;5045750;28;20196;-64
2021/01/30 13:10:00;;;;;;;2.47;1.93;;;-7.60;99.90;;;;;;5047791;28;20528;-64
2021/01/30 13:12:27;;;;;;;3.93;2.20;;;-7.50;99.90;;;;;;5051928;28;20280;-63